Pagrindinis puslapis
METAR-TAF:

METAR-TAF

Oro uostai :

Decimomannu, Italija

platuma: 39-21N, ilguma: 008-58E, Aukštis: 29 m

Dabartinis oras

Ataskaita buvo paskelbta 47 minutes, ne 18:55 UTC
Vėjas 4 kt iš Rytų/Pietryčių
Temperatūra 20°C
Drėgmė 83%
Slėgis 1012 hPa
Matomumas 10 km arba daugiau
Išsisklaidę debesys ne aukštis 3500 ft

METAR: LIED 301855Z 12004KT 9999 SCT035 20/17 Q1012 RMK SCT VIS MIN 9999 WIND THR35 13006KT WIND THR17 /////KT BLU

Laikas: 21:42 (19:42 UTC)

Prognozė

Ataskaita buvo paskelbta 14 valandos ir 42 minutes, ne 05:00 UTC
Prognozė galioja nuo 30 metu 06 UTC su 30 metu 15 UTC
Vėjas 5 kt nuo kintamojo kryptimis
Matomumas 10 km arba daugiau
Mažai debesys ne aukštis 3000 ft
Tapsmas
nuo 30 metu 10 UTC su 30 metu 12 UTC
Vėjas 12 kt iš Pietų/Pietryčių
Matomumas 10 km arba daugiau
Išsisklaidę debesys ne aukštis 2500 ft
Laikinai
nuo 30 metu 13 UTC su 30 metu 15 UTC
Su prošvaistėmis ne aukštis 2000 ft
lietus

TAF: LIED 300500Z 3006/3015 VRB05KT 9999 FEW030 BECMG 3010/3012 15012KT 9999 SCT025 TEMPO 3013/3015 RA BKN020

Orai ataskaitas ir orų prognozės (METAR, TAF).

turimą stotys yra geltonos ir raudonos taškus žemėlapyje.

Perkelti pele per norėdami pamatyti stoties vardą.

Tada spustelėkite, norėdami matyti oro stebėjimo ir prognozės.

Norėdami pakeisti žemėlapį: spustelėkite ant žalios mygtukų su juodo kryžiaus žemyn,; žalią mygtuką su brūkšneliu, jei norite nutolinti; arba žalių rodyklių gretimoms žemėlapius.


METAR-TAF: